Terminal Aerodrome Forecast
Issued by NWS Mt. Holly, NJ

Home | Current Version | Previous Version | Text Only | Print | Product List | Glossary On
Versions: 1 2 3 4 5 6 7 8 9 10 11 12 13 14 15 16 17 18 19
000
FTUS41 KPHI 292333
TAFACY
TAF
KACY 292333Z 3000/3024 21008KT P6SM SCT045
     FM300100 20006KT P6SM SCT250
     FM300800 20008KT P6SM BKN100
      TEMPO 3011/3015 -SHRA OVC050
     FM301500 21010KT P6SM SCT045
     FM302000 22006KT P6SM OVC100 PROB30 3020/3024 4SM -TSRA BR
      OVC025CB=

USA.gov is the U.S. government's official web portal to all federal, state and local government web resources and services.